sensor_id;sensor_type;location;lat;lon;timestamp;temperature;humidity
3360;DHT22;1693;49.602;11.046;2022-07-18T00:00:45;13.70;99.60
3360;DHT22;1693;49.602;11.046;2022-07-18T00:03:13;13.80;99.30
3360;DHT22;1693;49.602;11.046;2022-07-18T00:05:40;13.70;99.50
3360;DHT22;1693;49.602;11.046;2022-07-18T00:08:07;13.50;99.80
3360;DHT22;1693;49.602;11.046;2022-07-18T00:10:34;13.50;99.70
3360;DHT22;1693;49.602;11.046;2022-07-18T00:13:01;13.40;99.40
3360;DHT22;1693;49.602;11.046;2022-07-18T00:15:29;13.50;99.50
3360;DHT22;1693;49.602;11.046;2022-07-18T00:17:56;13.30;99.10
3360;DHT22;1693;49.602;11.046;2022-07-18T00:20:25;13.20;99.50
3360;DHT22;1693;49.602;11.046;2022-07-18T00:22:52;13.20;99.70
3360;DHT22;1693;49.602;11.046;2022-07-18T00:25:19;13.20;99.90
3360;DHT22;1693;49.602;11.046;2022-07-18T00:27:46;13.20;99.90
3360;DHT22;1693;49.602;11.046;2022-07-18T00:30:13;13.10;99.90
3360;DHT22;1693;49.602;11.046;2022-07-18T00:32:41;13.00;99.90
3360;DHT22;1693;49.602;11.046;2022-07-18T00:35:08;13.00;99.90
3360;DHT22;1693;49.602;11.046;2022-07-18T00:37:37;13.10;99.90
3360;DHT22;1693;49.602;11.046;2022-07-18T00:40:05;13.00;99.90
3360;DHT22;1693;49.602;11.046;2022-07-18T00:42:33;13.00;99.90
3360;DHT22;1693;49.602;11.046;2022-07-18T00:45:00;12.80;99.90
3360;DHT22;1693;49.602;11.046;2022-07-18T00:47:28;12.80;99.90
3360;DHT22;1693;49.602;11.046;2022-07-18T00:49:55;12.80;99.90
3360;DHT22;1693;49.602;11.046;2022-07-18T00:52:22;12.70;99.90
3360;DHT22;1693;49.602;11.046;2022-07-18T00:54:51;12.80;99.90
3360;DHT22;1693;49.602;11.046;2022-07-18T00:57:18;12.80;99.90
3360;DHT22;1693;49.602;11.046;2022-07-18T00:59:45;12.70;99.90
3360;DHT22;1693;49.602;11.046;2022-07-18T01:02:36;12.70;99.90
3360;DHT22;1693;49.602;11.046;2022-07-18T01:05:03;12.60;99.90
3360;DHT22;1693;49.602;11.046;2022-07-18T01:07:31;12.60;99.90
3360;DHT22;1693;49.602;11.046;2022-07-18T01:09:59;12.60;99.90
3360;DHT22;1693;49.602;11.046;2022-07-18T01:12:27;12.50;99.90
3360;DHT22;1693;49.602;11.046;2022-07-18T01:14:54;12.50;99.90
3360;DHT22;1693;49.602;11.046;2022-07-18T01:17:22;12.40;99.90
3360;DHT22;1693;49.602;11.046;2022-07-18T01:19:49;12.40;99.90
3360;DHT22;1693;49.602;11.046;2022-07-18T01:22:19;12.30;99.90
3360;DHT22;1693;49.602;11.046;2022-07-18T01:24:47;12.20;99.90
3360;DHT22;1693;49.602;11.046;2022-07-18T01:27:15;12.20;99.90
3360;DHT22;1693;49.602;11.046;2022-07-18T01:29:43;12.20;99.90
3360;DHT22;1693;49.602;11.046;2022-07-18T01:32:10;12.20;99.90
3360;DHT22;1693;49.602;11.046;2022-07-18T01:34:38;12.20;99.90
3360;DHT22;1693;49.602;11.046;2022-07-18T01:37:07;12.20;99.90
3360;DHT22;1693;49.602;11.046;2022-07-18T01:39:36;12.00;99.90
3360;DHT22;1693;49.602;11.046;2022-07-18T01:42:05;12.00;99.90
3360;DHT22;1693;49.602;11.046;2022-07-18T01:44:33;11.90;99.90
3360;DHT22;1693;49.602;11.046;2022-07-18T01:47:01;11.80;99.90
3360;DHT22;1693;49.602;11.046;2022-07-18T01:49:28;11.80;99.90
3360;DHT22;1693;49.602;11.046;2022-07-18T01:51:56;11.80;99.90
3360;DHT22;1693;49.602;11.046;2022-07-18T01:54:24;11.70;99.90
3360;DHT22;1693;49.602;11.046;2022-07-18T01:56:53;11.60;99.90
3360;DHT22;1693;49.602;11.046;2022-07-18T01:59:20;11.60;99.90
3360;DHT22;1693;49.602;11.046;2022-07-18T02:01:51;11.60;99.90
3360;DHT22;1693;49.602;11.046;2022-07-18T02:04:21;11.60;99.90
3360;DHT22;1693;49.602;11.046;2022-07-18T02:07:08;11.50;99.90
3360;DHT22;1693;49.602;11.046;2022-07-18T02:09:36;11.60;99.90
3360;DHT22;1693;49.602;11.046;2022-07-18T02:12:05;11.50;99.90
3360;DHT22;1693;49.602;11.046;2022-07-18T02:14:32;11.50;99.90
3360;DHT22;1693;49.602;11.046;2022-07-18T02:16:59;11.70;99.90
3360;DHT22;1693;49.602;11.046;2022-07-18T02:19:26;11.70;99.90
3360;DHT22;1693;49.602;11.046;2022-07-18T02:21:53;11.70;99.90
3360;DHT22;1693;49.602;11.046;2022-07-18T02:24:20;11.60;99.90
3360;DHT22;1693;49.602;11.046;2022-07-18T02:26:48;11.50;99.90
3360;DHT22;1693;49.602;11.046;2022-07-18T02:29:16;11.60;99.90
3360;DHT22;1693;49.602;11.046;2022-07-18T02:31:43;11.50;99.90
3360;DHT22;1693;49.602;11.046;2022-07-18T02:34:10;11.60;99.90
3360;DHT22;1693;49.602;11.046;2022-07-18T02:36:37;11.60;99.90
3360;DHT22;1693;49.602;11.046;2022-07-18T02:39:05;11.50;99.90
3360;DHT22;1693;49.602;11.046;2022-07-18T02:41:33;11.50;99.90
3360;DHT22;1693;49.602;11.046;2022-07-18T02:44:00;11.40;99.90
3360;DHT22;1693;49.602;11.046;2022-07-18T02:46:29;11.30;99.90
3360;DHT22;1693;49.602;11.046;2022-07-18T02:48:56;11.30;99.90
3360;DHT22;1693;49.602;11.046;2022-07-18T02:51:23;11.40;99.90
3360;DHT22;1693;49.602;11.046;2022-07-18T02:53:50;11.30;99.90
3360;DHT22;1693;49.602;11.046;2022-07-18T02:56:18;11.30;99.90
3360;DHT22;1693;49.602;11.046;2022-07-18T02:58:45;11.20;99.90
3360;DHT22;1693;49.602;11.046;2022-07-18T03:01:12;11.10;99.90
3360;DHT22;1693;49.602;11.046;2022-07-18T03:03:40;11.00;99.90
3360;DHT22;1693;49.602;11.046;2022-07-18T03:06:07;10.90;99.90
3360;DHT22;1693;49.602;11.046;2022-07-18T03:08:34;10.80;99.90
3360;DHT22;1693;49.602;11.046;2022-07-18T03:11:01;10.90;99.90
3360;DHT22;1693;49.602;11.046;2022-07-18T03:13:29;10.80;99.90
3360;DHT22;1693;49.602;11.046;2022-07-18T03:15:56;10.80;99.90
3360;DHT22;1693;49.602;11.046;2022-07-18T03:18:23;10.70;99.90
3360;DHT22;1693;49.602;11.046;2022-07-18T03:20:53;10.70;99.90
3360;DHT22;1693;49.602;11.046;2022-07-18T03:23:20;10.60;99.90
3360;DHT22;1693;49.602;11.046;2022-07-18T03:25:47;10.60;99.90
3360;DHT22;1693;49.602;11.046;2022-07-18T03:28:14;10.50;99.90
3360;DHT22;1693;49.602;11.046;2022-07-18T03:30:41;10.50;99.90
3360;DHT22;1693;49.602;11.046;2022-07-18T03:33:08;10.40;99.90
3360;DHT22;1693;49.602;11.046;2022-07-18T03:35:36;10.40;99.90
3360;DHT22;1693;49.602;11.046;2022-07-18T03:38:04;10.40;99.90
3360;DHT22;1693;49.602;11.046;2022-07-18T03:40:32;10.30;99.90
3360;DHT22;1693;49.602;11.046;2022-07-18T03:42:59;10.40;99.90
3360;DHT22;1693;49.602;11.046;2022-07-18T03:45:26;10.50;99.90
3360;DHT22;1693;49.602;11.046;2022-07-18T03:47:53;10.60;99.90
3360;DHT22;1693;49.602;11.046;2022-07-18T03:50:21;10.70;99.90
3360;DHT22;1693;49.602;11.046;2022-07-18T03:52:48;10.70;99.90
3360;DHT22;1693;49.602;11.046;2022-07-18T03:55:17;10.80;99.90
3360;DHT22;1693;49.602;11.046;2022-07-18T03:57:44;10.70;99.90
3360;DHT22;1693;49.602;11.046;2022-07-18T04:00:12;10.80;99.90
3360;DHT22;1693;49.602;11.046;2022-07-18T04:02:39;10.80;99.90
3360;DHT22;1693;49.602;11.046;2022-07-18T04:05:07;10.90;99.90
3360;DHT22;1693;49.602;11.046;2022-07-18T04:07:34;10.90;99.90
3360;DHT22;1693;49.602;11.046;2022-07-18T04:10:02;10.90;99.90
3360;DHT22;1693;49.602;11.046;2022-07-18T04:12:31;10.90;99.90
3360;DHT22;1693;49.602;11.046;2022-07-18T04:14:58;10.90;99.90
3360;DHT22;1693;49.602;11.046;2022-07-18T04:17:25;10.90;99.90
3360;DHT22;1693;49.602;11.046;2022-07-18T04:19:53;10.90;99.90
3360;DHT22;1693;49.602;11.046;2022-07-18T04:22:20;10.90;99.90
3360;DHT22;1693;49.602;11.046;2022-07-18T04:24:46;10.90;99.90
3360;DHT22;1693;49.602;11.046;2022-07-18T04:27:14;10.90;99.90
3360;DHT22;1693;49.602;11.046;2022-07-18T04:29:42;11.00;99.90
3360;DHT22;1693;49.602;11.046;2022-07-18T04:32:09;11.10;99.90
3360;DHT22;1693;49.602;11.046;2022-07-18T04:34:37;11.20;99.90
3360;DHT22;1693;49.602;11.046;2022-07-18T04:37:04;11.30;99.90
3360;DHT22;1693;49.602;11.046;2022-07-18T04:39:31;11.30;99.90
3360;DHT22;1693;49.602;11.046;2022-07-18T04:41:58;11.40;99.90
3360;DHT22;1693;49.602;11.046;2022-07-18T04:44:25;11.40;99.90
3360;DHT22;1693;49.602;11.046;2022-07-18T04:46:53;11.70;99.90
3360;DHT22;1693;49.602;11.046;2022-07-18T04:49:20;11.80;99.90
3360;DHT22;1693;49.602;11.046;2022-07-18T04:51:47;11.90;99.90
3360;DHT22;1693;49.602;11.046;2022-07-18T04:54:14;12.00;99.90
3360;DHT22;1693;49.602;11.046;2022-07-18T04:56:41;12.20;99.90
3360;DHT22;1693;49.602;11.046;2022-07-18T04:59:08;12.30;99.90
3360;DHT22;1693;49.602;11.046;2022-07-18T05:01:35;12.60;99.90
3360;DHT22;1693;49.602;11.046;2022-07-18T05:04:04;12.80;99.90
3360;DHT22;1693;49.602;11.046;2022-07-18T05:06:31;12.90;99.90
3360;DHT22;1693;49.602;11.046;2022-07-18T05:08:58;13.10;99.90
3360;DHT22;1693;49.602;11.046;2022-07-18T05:11:26;13.20;99.90
3360;DHT22;1693;49.602;11.046;2022-07-18T05:13:53;13.40;99.90
3360;DHT22;1693;49.602;11.046;2022-07-18T05:16:20;13.50;99.90
3360;DHT22;1693;49.602;11.046;2022-07-18T05:18:47;13.70;99.90
3360;DHT22;1693;49.602;11.046;2022-07-18T05:21:15;13.80;99.90
3360;DHT22;1693;49.602;11.046;2022-07-18T05:23:42;13.90;99.90
3360;DHT22;1693;49.602;11.046;2022-07-18T05:26:11;13.90;99.90
3360;DHT22;1693;49.602;11.046;2022-07-18T05:28:38;14.20;99.90
3360;DHT22;1693;49.602;11.046;2022-07-18T05:31:07;14.40;99.90
3360;DHT22;1693;49.602;11.046;2022-07-18T05:33:34;14.50;99.90
3360;DHT22;1693;49.602;11.046;2022-07-18T05:36:01;14.70;99.90
3360;DHT22;1693;49.602;11.046;2022-07-18T05:38:30;14.80;99.90
3360;DHT22;1693;49.602;11.046;2022-07-18T05:40:57;15.10;99.90
3360;DHT22;1693;49.602;11.046;2022-07-18T05:43:24;15.30;99.90
3360;DHT22;1693;49.602;11.046;2022-07-18T05:45:51;15.40;99.90
3360;DHT22;1693;49.602;11.046;2022-07-18T05:48:18;15.70;99.90
3360;DHT22;1693;49.602;11.046;2022-07-18T05:50:45;16.00;99.90
3360;DHT22;1693;49.602;11.046;2022-07-18T05:53:12;16.20;99.90
3360;DHT22;1693;49.602;11.046;2022-07-18T05:55:42;16.20;99.90
3360;DHT22;1693;49.602;11.046;2022-07-18T05:58:11;16.50;99.90
3360;DHT22;1693;49.602;11.046;2022-07-18T06:00:38;16.70;99.90
3360;DHT22;1693;49.602;11.046;2022-07-18T06:03:05;16.90;99.90
3360;DHT22;1693;49.602;11.046;2022-07-18T06:05:32;17.10;99.90
3360;DHT22;1693;49.602;11.046;2022-07-18T06:08:03;17.20;99.90
3360;DHT22;1693;49.602;11.046;2022-07-18T06:14:03;17.50;99.90
3360;DHT22;1693;49.602;11.046;2022-07-18T06:16:31;17.70;99.90
3360;DHT22;1693;49.602;11.046;2022-07-18T06:18:59;17.90;99.90
3360;DHT22;1693;49.602;11.046;2022-07-18T06:21:27;18.10;99.90
3360;DHT22;1693;49.602;11.046;2022-07-18T06:23:54;18.40;99.90
3360;DHT22;1693;49.602;11.046;2022-07-18T06:26:21;18.60;99.90
3360;DHT22;1693;49.602;11.046;2022-07-18T06:28:48;18.90;99.90
3360;DHT22;1693;49.602;11.046;2022-07-18T06:31:16;19.10;99.90
3360;DHT22;1693;49.602;11.046;2022-07-18T06:33:44;19.30;99.90
3360;DHT22;1693;49.602;11.046;2022-07-18T06:36:11;19.50;99.90
3360;DHT22;1693;49.602;11.046;2022-07-18T06:38:39;19.70;99.60
3360;DHT22;1693;49.602;11.046;2022-07-18T06:41:06;19.80;98.80
3360;DHT22;1693;49.602;11.046;2022-07-18T06:43:34;20.00;98.40
3360;DHT22;1693;49.602;11.046;2022-07-18T06:46:02;20.10;97.40
3360;DHT22;1693;49.602;11.046;2022-07-18T06:48:31;20.20;97.40
3360;DHT22;1693;49.602;11.046;2022-07-18T06:51:00;20.30;95.90
3360;DHT22;1693;49.602;11.046;2022-07-18T06:53:28;20.40;94.80
3360;DHT22;1693;49.602;11.046;2022-07-18T06:55:55;20.40;95.00
3360;DHT22;1693;49.602;11.046;2022-07-18T06:58:23;20.60;94.40
3360;DHT22;1693;49.602;11.046;2022-07-18T07:00:51;20.70;93.50
3360;DHT22;1693;49.602;11.046;2022-07-18T07:03:18;20.90;92.10
3360;DHT22;1693;49.602;11.046;2022-07-18T07:05:46;20.90;92.50
3360;DHT22;1693;49.602;11.046;2022-07-18T07:08:13;21.00;91.80
3360;DHT22;1693;49.602;11.046;2022-07-18T07:10:41;21.10;91.70
3360;DHT22;1693;49.602;11.046;2022-07-18T07:13:08;21.20;90.50
3360;DHT22;1693;49.602;11.046;2022-07-18T07:15:35;21.30;90.60
3360;DHT22;1693;49.602;11.046;2022-07-18T07:18:03;21.50;90.30
3360;DHT22;1693;49.602;11.046;2022-07-18T07:20:30;21.60;90.80
3360;DHT22;1693;49.602;11.046;2022-07-18T07:22:59;21.60;90.10
3360;DHT22;1693;49.602;11.046;2022-07-18T07:25:31;21.60;90.40
3360;DHT22;1693;49.602;11.046;2022-07-18T07:27:58;21.90;90.30
3360;DHT22;1693;49.602;11.046;2022-07-18T07:30:25;22.10;89.70
3360;DHT22;1693;49.602;11.046;2022-07-18T07:32:52;22.30;89.30
3360;DHT22;1693;49.602;11.046;2022-07-18T07:35:20;22.40;87.50
3360;DHT22;1693;49.602;11.046;2022-07-18T07:37:49;22.60;86.90
3360;DHT22;1693;49.602;11.046;2022-07-18T07:40:18;22.50;84.40
3360;DHT22;1693;49.602;11.046;2022-07-18T07:42:46;22.40;86.30
3360;DHT22;1693;49.602;11.046;2022-07-18T07:45:14;22.50;84.30
3360;DHT22;1693;49.602;11.046;2022-07-18T07:47:41;22.50;83.60
3360;DHT22;1693;49.602;11.046;2022-07-18T07:50:09;22.80;83.50
3360;DHT22;1693;49.602;11.046;2022-07-18T07:52:38;23.10;83.90
3360;DHT22;1693;49.602;11.046;2022-07-18T07:55:06;23.20;81.90
3360;DHT22;1693;49.602;11.046;2022-07-18T07:57:35;23.40;80.90
3360;DHT22;1693;49.602;11.046;2022-07-18T08:00:04;23.40;80.10
3360;DHT22;1693;49.602;11.046;2022-07-18T08:02:32;23.60;80.10
3360;DHT22;1693;49.602;11.046;2022-07-18T08:04:59;23.80;78.20
3360;DHT22;1693;49.602;11.046;2022-07-18T08:07:26;23.90;76.80
3360;DHT22;1693;49.602;11.046;2022-07-18T08:09:53;24.10;76.70
3360;DHT22;1693;49.602;11.046;2022-07-18T08:12:20;24.20;76.20
3360;DHT22;1693;49.602;11.046;2022-07-18T08:14:49;24.30;75.90
3360;DHT22;1693;49.602;11.046;2022-07-18T08:17:17;24.50;76.00
3360;DHT22;1693;49.602;11.046;2022-07-18T08:19:44;24.50;74.30
3360;DHT22;1693;49.602;11.046;2022-07-18T08:22:11;24.70;74.30
3360;DHT22;1693;49.602;11.046;2022-07-18T08:24:38;24.90;73.10
3360;DHT22;1693;49.602;11.046;2022-07-18T08:27:06;24.90;73.70
3360;DHT22;1693;49.602;11.046;2022-07-18T08:29:34;25.00;74.10
3360;DHT22;1693;49.602;11.046;2022-07-18T08:32:03;25.20;71.20
3360;DHT22;1693;49.602;11.046;2022-07-18T08:34:31;25.30;70.80
3360;DHT22;1693;49.602;11.046;2022-07-18T08:36:58;25.40;71.10
3360;DHT22;1693;49.602;11.046;2022-07-18T08:39:24;25.50;70.20
3360;DHT22;1693;49.602;11.046;2022-07-18T08:41:52;25.60;69.40
3360;DHT22;1693;49.602;11.046;2022-07-18T08:44:19;25.70;69.40
3360;DHT22;1693;49.602;11.046;2022-07-18T08:46:50;25.60;68.70
3360;DHT22;1693;49.602;11.046;2022-07-18T08:49:19;25.50;67.90
3360;DHT22;1693;49.602;11.046;2022-07-18T08:51:47;25.60;68.20
3360;DHT22;1693;49.602;11.046;2022-07-18T08:54:15;25.60;66.50
3360;DHT22;1693;49.602;11.046;2022-07-18T08:56:43;25.80;66.70
3360;DHT22;1693;49.602;11.046;2022-07-18T08:59:10;25.90;66.40
3360;DHT22;1693;49.602;11.046;2022-07-18T09:01:37;25.80;66.70
3360;DHT22;1693;49.602;11.046;2022-07-18T09:04:04;26.00;67.10
3360;DHT22;1693;49.602;11.046;2022-07-18T09:06:48;26.10;66.30
3360;DHT22;1693;49.602;11.046;2022-07-18T09:09:17;26.40;66.40
3360;DHT22;1693;49.602;11.046;2022-07-18T09:11:51;26.60;67.00
3360;DHT22;1693;49.602;11.046;2022-07-18T09:14:30;26.80;63.60
3360;DHT22;1693;49.602;11.046;2022-07-18T09:17:09;26.90;62.70
3360;DHT22;1693;49.602;11.046;2022-07-18T09:19:38;27.10;61.00
3360;DHT22;1693;49.602;11.046;2022-07-18T09:22:15;27.10;60.90
3360;DHT22;1693;49.602;11.046;2022-07-18T09:25:00;27.40;60.90
3360;DHT22;1693;49.602;11.046;2022-07-18T09:27:33;27.50;59.70
3360;DHT22;1693;49.602;11.046;2022-07-18T09:30:18;27.60;56.90
3360;DHT22;1693;49.602;11.046;2022-07-18T09:32:47;27.80;57.70
3360;DHT22;1693;49.602;11.046;2022-07-18T09:35:17;27.90;58.40
3360;DHT22;1693;49.602;11.046;2022-07-18T09:37:58;27.90;55.80
3360;DHT22;1693;49.602;11.046;2022-07-18T09:40:28;28.10;55.70
3360;DHT22;1693;49.602;11.046;2022-07-18T09:42:56;28.20;54.40
3360;DHT22;1693;49.602;11.046;2022-07-18T09:45:26;28.30;53.60
3360;DHT22;1693;49.602;11.046;2022-07-18T09:47:55;28.40;53.50
3360;DHT22;1693;49.602;11.046;2022-07-18T09:50:31;28.50;53.30
3360;DHT22;1693;49.602;11.046;2022-07-18T09:53:03;28.30;49.80
3360;DHT22;1693;49.602;11.046;2022-07-18T09:55:30;28.30;49.40
3360;DHT22;1693;49.602;11.046;2022-07-18T09:57:59;28.50;49.20
3360;DHT22;1693;49.602;11.046;2022-07-18T10:00:28;28.80;48.90
3360;DHT22;1693;49.602;11.046;2022-07-18T10:02:57;28.90;48.50
3360;DHT22;1693;49.602;11.046;2022-07-18T10:05:26;29.10;47.20
3360;DHT22;1693;49.602;11.046;2022-07-18T10:07:54;28.90;45.00
3360;DHT22;1693;49.602;11.046;2022-07-18T10:10:22;28.80;47.00
3360;DHT22;1693;49.602;11.046;2022-07-18T10:12:53;28.70;48.40
3360;DHT22;1693;49.602;11.046;2022-07-18T10:15:21;28.70;47.90
3360;DHT22;1693;49.602;11.046;2022-07-18T10:17:49;28.80;46.60
3360;DHT22;1693;49.602;11.046;2022-07-18T10:20:17;29.10;46.50
3360;DHT22;1693;49.602;11.046;2022-07-18T10:22:44;29.30;44.50
3360;DHT22;1693;49.602;11.046;2022-07-18T10:25:13;29.30;42.80
3360;DHT22;1693;49.602;11.046;2022-07-18T10:27:53;29.30;43.10
3360;DHT22;1693;49.602;11.046;2022-07-18T10:30:40;29.00;44.30
3360;DHT22;1693;49.602;11.046;2022-07-18T10:33:37;29.20;45.60
3360;DHT22;1693;49.602;11.046;2022-07-18T10:36:09;29.40;46.90
3360;DHT22;1693;49.602;11.046;2022-07-18T10:38:38;29.70;45.70
3360;DHT22;1693;49.602;11.046;2022-07-18T10:41:08;29.80;45.00
3360;DHT22;1693;49.602;11.046;2022-07-18T10:43:44;30.00;45.70
3360;DHT22;1693;49.602;11.046;2022-07-18T10:46:12;30.40;45.00
3360;DHT22;1693;49.602;11.046;2022-07-18T10:49:03;30.40;44.00
3360;DHT22;1693;49.602;11.046;2022-07-18T10:51:33;30.80;43.60
3360;DHT22;1693;49.602;11.046;2022-07-18T10:54:08;30.50;42.80
3360;DHT22;1693;49.602;11.046;2022-07-18T10:57:07;30.50;42.90
3360;DHT22;1693;49.602;11.046;2022-07-18T10:59:59;30.50;42.00
3360;DHT22;1693;49.602;11.046;2022-07-18T11:02:36;30.60;42.20
3360;DHT22;1693;49.602;11.046;2022-07-18T11:05:33;30.60;42.10
3360;DHT22;1693;49.602;11.046;2022-07-18T11:08:19;30.80;42.10
3360;DHT22;1693;49.602;11.046;2022-07-18T11:11:05;30.70;42.30
3360;DHT22;1693;49.602;11.046;2022-07-18T11:13:34;31.00;42.20
3360;DHT22;1693;49.602;11.046;2022-07-18T11:16:04;31.10;41.90
3360;DHT22;1693;49.602;11.046;2022-07-18T11:18:33;31.20;41.80
3360;DHT22;1693;49.602;11.046;2022-07-18T11:21:02;31.30;41.50
3360;DHT22;1693;49.602;11.046;2022-07-18T11:23:29;31.30;41.80
3360;DHT22;1693;49.602;11.046;2022-07-18T11:25:58;31.30;42.20
3360;DHT22;1693;49.602;11.046;2022-07-18T11:28:27;31.20;40.70
3360;DHT22;1693;49.602;11.046;2022-07-18T11:31:03;31.60;41.30
3360;DHT22;1693;49.602;11.046;2022-07-18T11:33:34;31.50;40.50
3360;DHT22;1693;49.602;11.046;2022-07-18T11:36:05;31.50;42.10
3360;DHT22;1693;49.602;11.046;2022-07-18T11:38:36;31.50;41.70
3360;DHT22;1693;49.602;11.046;2022-07-18T11:41:04;31.70;40.70
3360;DHT22;1693;49.602;11.046;2022-07-18T11:43:31;32.00;41.20
3360;DHT22;1693;49.602;11.046;2022-07-18T11:46:01;32.50;40.40
3360;DHT22;1693;49.602;11.046;2022-07-18T11:48:29;32.60;38.80
3360;DHT22;1693;49.602;11.046;2022-07-18T11:50:57;32.60;39.30
3360;DHT22;1693;49.602;11.046;2022-07-18T11:53:24;32.90;40.00
3360;DHT22;1693;49.602;11.046;2022-07-18T11:55:55;33.20;39.90
3360;DHT22;1693;49.602;11.046;2022-07-18T11:58:22;33.10;39.20
3360;DHT22;1693;49.602;11.046;2022-07-18T12:00:50;33.50;39.60
3360;DHT22;1693;49.602;11.046;2022-07-18T12:03:20;33.70;38.80
3360;DHT22;1693;49.602;11.046;2022-07-18T12:05:51;34.10;38.90
3360;DHT22;1693;49.602;11.046;2022-07-18T12:08:32;34.70;37.20
3360;DHT22;1693;49.602;11.046;2022-07-18T12:11:14;35.30;37.70
3360;DHT22;1693;49.602;11.046;2022-07-18T12:13:49;35.60;36.40
3360;DHT22;1693;49.602;11.046;2022-07-18T12:16:28;36.20;36.80
3360;DHT22;1693;49.602;11.046;2022-07-18T12:19:00;36.70;36.20
3360;DHT22;1693;49.602;11.046;2022-07-18T12:21:46;36.60;35.60
3360;DHT22;1693;49.602;11.046;2022-07-18T12:24:32;37.00;34.70
3360;DHT22;1693;49.602;11.046;2022-07-18T12:30:10;38.40;34.60
3360;DHT22;1693;49.602;11.046;2022-07-18T12:32:43;38.50;33.20
3360;DHT22;1693;49.602;11.046;2022-07-18T12:35:14;39.30;33.00
3360;DHT22;1693;49.602;11.046;2022-07-18T12:37:51;40.70;32.10
3360;DHT22;1693;49.602;11.046;2022-07-18T12:42:46;43.10;31.90
3360;DHT22;1693;49.602;11.046;2022-07-18T12:45:14;43.70;30.10
3360;DHT22;1693;49.602;11.046;2022-07-18T12:47:41;42.80;29.80
3360;DHT22;1693;49.602;11.046;2022-07-18T12:50:09;41.90;28.80
3360;DHT22;1693;49.602;11.046;2022-07-18T12:52:37;40.70;29.10
3360;DHT22;1693;49.602;11.046;2022-07-18T12:55:05;41.80;30.20
3360;DHT22;1693;49.602;11.046;2022-07-18T12:57:32;41.00;29.70
3360;DHT22;1693;49.602;11.046;2022-07-18T12:59:59;41.70;29.30
3360;DHT22;1693;49.602;11.046;2022-07-18T13:04:53;41.90;28.70
3360;DHT22;1693;49.602;11.046;2022-07-18T13:07:20;43.20;28.80
3360;DHT22;1693;49.602;11.046;2022-07-18T13:09:49;44.30;28.50
3360;DHT22;1693;49.602;11.046;2022-07-18T13:12:16;43.20;28.30
3360;DHT22;1693;49.602;11.046;2022-07-18T13:14:43;43.50;29.40
3360;DHT22;1693;49.602;11.046;2022-07-18T13:17:11;43.60;28.40
3360;DHT22;1693;49.602;11.046;2022-07-18T13:22:06;44.50;28.20
3360;DHT22;1693;49.602;11.046;2022-07-18T13:24:33;43.10;28.00
3360;DHT22;1693;49.602;11.046;2022-07-18T13:27:01;42.20;27.60
3360;DHT22;1693;49.602;11.046;2022-07-18T13:29:28;42.00;28.60
3360;DHT22;1693;49.602;11.046;2022-07-18T13:31:55;42.40;28.00
3360;DHT22;1693;49.602;11.046;2022-07-18T13:34:23;42.00;28.20
3360;DHT22;1693;49.602;11.046;2022-07-18T13:36:50;43.00;30.00
3360;DHT22;1693;49.602;11.046;2022-07-18T13:39:18;42.50;28.40
3360;DHT22;1693;49.602;11.046;2022-07-18T13:41:45;42.30;28.10
3360;DHT22;1693;49.602;11.046;2022-07-18T13:44:14;43.00;29.50
3360;DHT22;1693;49.602;11.046;2022-07-18T13:46:42;42.50;27.80
3360;DHT22;1693;49.602;11.046;2022-07-18T13:49:09;41.60;28.40
3360;DHT22;1693;49.602;11.046;2022-07-18T13:51:37;40.20;28.20
3360;DHT22;1693;49.602;11.046;2022-07-18T13:54:04;40.60;28.60
3360;DHT22;1693;49.602;11.046;2022-07-18T13:56:32;42.30;28.20
3360;DHT22;1693;49.602;11.046;2022-07-18T13:58:59;41.10;28.60
3360;DHT22;1693;49.602;11.046;2022-07-18T14:01:27;41.50;28.50
3360;DHT22;1693;49.602;11.046;2022-07-18T14:03:54;41.60;28.60
3360;DHT22;1693;49.602;11.046;2022-07-18T14:06:22;41.20;27.60
3360;DHT22;1693;49.602;11.046;2022-07-18T14:08:49;41.50;28.00
3360;DHT22;1693;49.602;11.046;2022-07-18T14:11:16;41.80;28.90
3360;DHT22;1693;49.602;11.046;2022-07-18T14:13:43;41.90;27.80
3360;DHT22;1693;49.602;11.046;2022-07-18T14:16:11;42.60;27.90
3360;DHT22;1693;49.602;11.046;2022-07-18T14:18:40;42.60;27.70
3360;DHT22;1693;49.602;11.046;2022-07-18T14:23:34;43.40;28.00
3360;DHT22;1693;49.602;11.046;2022-07-18T14:26:01;44.00;27.30
3360;DHT22;1693;49.602;11.046;2022-07-18T14:28:28;43.60;28.00
3360;DHT22;1693;49.602;11.046;2022-07-18T14:30:56;43.30;27.30
3360;DHT22;1693;49.602;11.046;2022-07-18T14:33:23;43.00;27.20
3360;DHT22;1693;49.602;11.046;2022-07-18T14:35:52;42.20;27.10
3360;DHT22;1693;49.602;11.046;2022-07-18T14:38:19;41.70;27.70
3360;DHT22;1693;49.602;11.046;2022-07-18T14:40:46;41.80;27.00
3360;DHT22;1693;49.602;11.046;2022-07-18T14:43:13;42.00;27.20
3360;DHT22;1693;49.602;11.046;2022-07-18T14:45:41;41.00;28.00
3360;DHT22;1693;49.602;11.046;2022-07-18T14:48:08;41.00;28.40
3360;DHT22;1693;49.602;11.046;2022-07-18T14:50:35;41.20;28.80
3360;DHT22;1693;49.602;11.046;2022-07-18T14:53:04;41.60;27.30
3360;DHT22;1693;49.602;11.046;2022-07-18T14:55:31;42.00;27.50
3360;DHT22;1693;49.602;11.046;2022-07-18T14:57:58;42.50;28.30
3360;DHT22;1693;49.602;11.046;2022-07-18T15:00:25;43.20;27.40
3360;DHT22;1693;49.602;11.046;2022-07-18T15:02:52;42.50;27.40
3360;DHT22;1693;49.602;11.046;2022-07-18T15:05:19;41.80;29.10
3360;DHT22;1693;49.602;11.046;2022-07-18T15:07:46;43.40;28.70
3360;DHT22;1693;49.602;11.046;2022-07-18T15:10:14;42.10;28.00
3360;DHT22;1693;49.602;11.046;2022-07-18T15:12:41;41.90;28.20
3360;DHT22;1693;49.602;11.046;2022-07-18T15:15:09;42.40;28.10
3360;DHT22;1693;49.602;11.046;2022-07-18T15:17:36;42.40;28.50
3360;DHT22;1693;49.602;11.046;2022-07-18T15:22:31;42.70;30.00
3360;DHT22;1693;49.602;11.046;2022-07-18T15:24:58;45.60;28.20
3360;DHT22;1693;49.602;11.046;2022-07-18T15:27:27;46.90;26.60
3360;DHT22;1693;49.602;11.046;2022-07-18T15:29:54;46.50;26.50
3360;DHT22;1693;49.602;11.046;2022-07-18T15:32:21;43.60;28.30
3360;DHT22;1693;49.602;11.046;2022-07-18T15:34:49;41.90;27.40
3360;DHT22;1693;49.602;11.046;2022-07-18T15:37:16;40.80;28.50
3360;DHT22;1693;49.602;11.046;2022-07-18T15:39:43;40.30;29.10
3360;DHT22;1693;49.602;11.046;2022-07-18T15:42:11;39.30;28.10
3360;DHT22;1693;49.602;11.046;2022-07-18T15:44:39;38.30;28.80
3360;DHT22;1693;49.602;11.046;2022-07-18T15:47:07;37.90;30.00
3360;DHT22;1693;49.602;11.046;2022-07-18T15:49:35;37.30;30.00
3360;DHT22;1693;49.602;11.046;2022-07-18T15:52:04;36.70;31.50
3360;DHT22;1693;49.602;11.046;2022-07-18T15:54:33;36.10;31.90
3360;DHT22;1693;49.602;11.046;2022-07-18T15:57:00;36.00;31.40
3360;DHT22;1693;49.602;11.046;2022-07-18T15:59:27;35.80;32.80
3360;DHT22;1693;49.602;11.046;2022-07-18T16:01:55;36.30;31.40
3360;DHT22;1693;49.602;11.046;2022-07-18T16:04:23;37.60;32.70
3360;DHT22;1693;49.602;11.046;2022-07-18T16:06:50;38.60;33.50
3360;DHT22;1693;49.602;11.046;2022-07-18T16:09:17;39.20;32.00
3360;DHT22;1693;49.602;11.046;2022-07-18T16:11:46;38.70;31.50
3360;DHT22;1693;49.602;11.046;2022-07-18T16:14:13;38.40;32.00